ěÝzenÝ letovÚho provozu ╚eskÚ republiky
Letiste: LKTB Aktualizace: 29.07.2021 11:30:28  UTC
 METAR LKTB 29.07. 11:30 ...
METAR LKTB 291130Z 25010KT 210V270 9999 BKN049 27/13 Q1014 NOSIG RMK REG QNH 1013=
 TAF LKTB 29.07. 11:00 ...
TAF LKTB 291100Z 2912/3018 18008KT CAVOK      TEMPO 2912/2916 9999 SCT040      TEMPO 2919/3006 VRB02KT=